createdAt,value
2019-05-06T00:00:34.210Z,82.84
2019-05-06T00:05:35.903Z,80.94
2019-05-06T00:10:37.730Z,81.91
2019-05-06T00:15:39.346Z,81.86
2019-05-06T00:20:41.136Z,81.43
2019-05-06T00:25:47.336Z,80.79
2019-05-06T00:30:55.854Z,80.27
2019-05-06T00:36:00.210Z,80.57
2019-05-06T00:41:06.603Z,80.39
2019-05-06T00:46:08.279Z,80.60
2019-05-06T00:51:09.780Z,79.36
2019-05-06T00:56:11.608Z,77.63
2019-05-06T01:01:25.893Z,76.01
2019-05-06T01:06:16.841Z,75.03
2019-05-06T01:11:18.660Z,74.51
2019-05-06T01:16:21.346Z,73.72
2019-05-06T01:21:23.826Z,71.75
2019-05-06T01:26:25.425Z,71.86
2019-05-06T01:31:39.719Z,72.58
2019-05-06T01:36:30.524Z,72.61
2019-05-06T01:41:49.013Z,72.81
2019-05-06T01:46:50.493Z,72.79
2019-05-06T01:51:54.412Z,73.72
2019-05-06T01:56:55.791Z,74.86
2019-05-06T02:02:01.046Z,72.20
2019-05-06T02:07:01.016Z,73.32
2019-05-06T02:12:04.611Z,73.69
2019-05-06T02:17:06.375Z,72.93
2019-05-06T02:22:25.288Z,75.66
2019-05-06T02:27:26.792Z,73.73
2019-05-06T02:32:36.233Z,72.49
2019-05-06T02:37:46.064Z,75.90
2019-05-06T02:42:45.982Z,75.18
2019-05-06T02:47:53.576Z,75.47
2019-05-06T02:52:54.048Z,76.73
2019-05-06T02:57:55.533Z,76.92
2019-05-06T03:02:57.008Z,77.16
2019-05-06T03:07:58.588Z,77.64
2019-05-06T03:13:02.974Z,78.05
2019-05-06T03:18:04.703Z,77.38
2019-05-06T03:23:08.063Z,78.06
2019-05-06T03:28:09.590Z,77.33
2019-05-06T03:38:14.637Z,78.16
2019-05-06T03:43:16.531Z,79.46
2019-05-06T03:48:20.235Z,79.07
2019-05-06T03:53:23.249Z,78.39
2019-05-06T03:58:26.863Z,78.70
2019-05-06T04:03:44.208Z,78.09
2019-05-06T04:08:34.152Z,79.44
2019-05-06T04:13:37.592Z,78.57
2019-05-06T04:18:44.091Z,78.63
2019-05-06T04:23:53.487Z,78.58
2019-05-06T04:28:56.135Z,78.96
2019-05-06T04:34:09.983Z,81.38
2019-05-06T04:39:04.222Z,79.71
2019-05-06T04:44:06.859Z,79.20
2019-05-06T04:49:14.088Z,78.97
2019-05-06T04:54:13.645Z,77.93
2019-05-06T04:59:15.820Z,76.50
2019-05-06T05:04:28.206Z,79.06
2019-05-06T05:09:23.033Z,76.58
2019-05-06T05:14:33.293Z,73.62
2019-05-06T05:19:35.071Z,73.98
2019-05-06T05:24:36.962Z,73.73
2019-05-06T05:29:38.743Z,72.37
2019-05-06T05:34:40.992Z,72.59
2019-05-06T05:39:43.364Z,72.37
2019-05-06T05:44:47.047Z,71.84
2019-05-06T05:50:03.288Z,69.74
2019-05-06T05:55:05.402Z,69.72
2019-05-06T06:00:07.767Z,71.01
2019-05-06T06:05:09.682Z,69.02
2019-05-06T06:10:13.968Z,69.97
2019-05-06T06:15:27.703Z,68.44
2019-05-06T06:20:44.562Z,67.73
2019-05-06T06:25:46.543Z,63.89
2019-05-06T06:30:48.558Z,64.52
2019-05-06T06:36:09.048Z,65.46
2019-05-06T06:41:12.112Z,62.43
2019-05-06T06:46:14.767Z,61.63
2019-05-06T06:51:16.547Z,61.79
2019-05-06T06:56:21.900Z,60.20
2019-05-06T07:01:27.679Z,60.60
2019-05-06T07:06:33.067Z,57.77
2019-05-06T07:11:34.547Z,59.23
2019-05-06T07:16:36.275Z,56.91
2019-05-06T07:21:43.609Z,56.08
2019-05-06T07:26:47.494Z,58.98
2019-05-06T07:31:49.066Z,56.95
2019-05-06T07:36:52.426Z,54.65
2019-05-06T07:41:56.227Z,52.45
2019-05-06T07:47:13.401Z,52.93
2019-05-06T07:52:17.283Z,51.02
2019-05-06T07:57:18.912Z,54.85
2019-05-06T08:02:22.633Z,48.88
2019-05-06T08:07:23.874Z,46.88
2019-05-06T08:12:25.360Z,48.61
2019-05-06T08:17:33.142Z,50.65
2019-05-06T08:22:52.966Z,49.12
2019-05-06T08:27:55.624Z,50.30
2019-05-06T08:32:57.103Z,47.71
2019-05-06T08:37:59.022Z,45.54
2019-05-06T08:43:02.196Z,48.35
2019-05-06T08:48:04.210Z,49.97
2019-05-06T08:53:16.774Z,48.25
2019-05-06T08:58:18.458Z,47.46
2019-05-06T09:03:22.213Z,47.82
2019-05-06T09:08:24.426Z,45.40
2019-05-06T09:13:26.300Z,46.31
2019-05-06T09:18:27.862Z,43.63
2019-05-06T09:23:29.655Z,45.97
2019-05-06T09:28:33.927Z,51.05
2019-05-06T09:33:37.506Z,47.87
2019-05-06T09:38:39.000Z,48.56
2019-05-06T09:43:40.575Z,49.38
2019-05-06T09:48:48.159Z,47.94
2019-05-06T09:54:04.185Z,47.69
2019-05-06T09:59:06.047Z,49.45
2019-05-06T10:04:08.781Z,48.74
2019-05-06T10:09:15.302Z,49.71
2019-05-06T10:14:15.402Z,48.68
2019-05-06T10:19:17.234Z,51.58
2019-05-06T10:24:19.118Z,51.36
2019-05-06T10:29:35.081Z,48.61
2019-05-06T10:34:37.055Z,51.42
2019-05-06T10:39:44.287Z,53.19
2019-05-06T10:44:54.454Z,51.76
2019-05-06T10:49:55.990Z,51.27
2019-05-06T10:54:57.756Z,51.12
2019-05-06T10:59:59.531Z,50.88
2019-05-06T11:05:02.786Z,52.39
2019-05-06T11:10:05.681Z,49.87
2019-05-06T11:15:08.154Z,50.92
2019-05-06T11:20:13.417Z,49.75
2019-05-06T11:25:14.513Z,49.16
2019-05-06T11:30:34.605Z,51.01
2019-05-06T11:35:54.658Z,50.00
2019-05-06T11:40:56.142Z,50.78
2019-05-06T11:45:57.634Z,49.36
2019-05-06T11:51:01.006Z,50.70
2019-05-06T11:56:04.887Z,49.12
2019-05-06T12:01:14.472Z,51.46
2019-05-06T12:06:16.147Z,48.08
2019-05-06T12:11:17.815Z,49.04
2019-05-06T12:16:19.321Z,49.56
2019-05-06T12:21:23.000Z,51.10
2019-05-06T12:26:24.192Z,50.86
2019-05-06T12:31:25.699Z,45.97
2019-05-06T12:36:27.523Z,50.35
2019-05-06T12:41:29.124Z,49.96
2019-05-06T12:46:48.195Z,46.69
2019-05-06T12:51:49.821Z,50.34
2019-05-06T12:56:54.298Z,49.62
2019-05-06T13:01:56.186Z,51.16
2019-05-06T13:06:57.771Z,48.07
2019-05-06T13:11:59.428Z,49.03
2019-05-06T13:17:02.608Z,46.36
2019-05-06T13:22:05.101Z,48.50
2019-05-06T13:27:08.485Z,48.14
2019-05-06T13:32:12.792Z,54.29
2019-05-06T13:37:15.510Z,47.83
2019-05-06T13:42:19.140Z,49.11
2019-05-06T13:47:39.190Z,52.61
2019-05-06T13:52:43.063Z,50.89
2019-05-06T13:57:44.555Z,52.76
2019-05-06T14:02:53.026Z,55.45
2019-05-06T14:07:54.294Z,52.87
2019-05-06T14:12:55.776Z,56.23
2019-05-06T14:17:57.932Z,52.61
2019-05-06T14:22:59.430Z,55.02
2019-05-06T14:28:08.787Z,53.07
2019-05-06T14:33:12.660Z,55.74
2019-05-06T14:38:15.736Z,56.56
2019-05-06T14:43:17.283Z,56.11
2019-05-06T14:48:19.002Z,57.53
2019-05-06T14:53:20.480Z,57.09
2019-05-06T14:58:22.794Z,56.61
2019-05-06T15:03:24.374Z,54.20
2019-05-06T15:08:26.155Z,58.73
2019-05-06T15:13:27.633Z,57.33
2019-05-06T15:18:29.117Z,58.97
2019-05-06T15:23:30.681Z,57.29
2019-05-06T15:28:33.805Z,56.46
2019-05-06T15:33:39.983Z,56.81
2019-05-06T15:38:42.049Z,56.82
2019-05-06T15:43:43.644Z,57.94
2019-05-06T15:48:45.206Z,56.46
2019-05-06T15:53:47.055Z,56.50
2019-05-06T15:58:48.623Z,59.48
2019-05-06T16:03:50.120Z,60.61
2019-05-06T16:08:52.607Z,62.11
2019-05-06T16:13:54.337Z,59.96
2019-05-06T16:18:56.506Z,59.06
2019-05-06T16:24:02.399Z,57.12
2019-05-06T16:29:03.702Z,54.66
2019-05-06T16:34:05.248Z,56.84
2019-05-06T16:39:07.311Z,57.02
2019-05-06T16:44:09.311Z,56.30
2019-05-06T16:49:10.987Z,60.21
2019-05-06T16:54:12.624Z,61.33
2019-05-06T16:59:14.343Z,53.91
2019-05-06T17:04:18.996Z,54.19
2019-05-06T17:09:26.910Z,52.33
2019-05-06T17:14:24.068Z,52.65
2019-05-06T17:19:25.551Z,53.76
2019-05-06T17:24:27.276Z,52.06
2019-05-06T17:29:33.943Z,51.76
2019-05-06T17:34:37.670Z,55.58
2019-05-06T17:39:39.147Z,53.84
2019-05-06T17:44:42.841Z,53.52
2019-05-06T17:49:44.125Z,51.79
2019-05-06T17:54:45.715Z,50.46
2019-05-06T17:59:47.201Z,49.67
2019-05-06T18:04:49.131Z,49.74
2019-05-06T18:09:52.244Z,49.40
2019-05-06T18:14:53.990Z,49.81
2019-05-06T18:19:55.876Z,50.34
2019-05-06T18:24:57.354Z,52.04
2019-05-06T18:30:11.052Z,50.70
2019-05-06T18:35:04.880Z,53.87
2019-05-06T18:40:06.660Z,51.37
2019-05-06T18:45:08.832Z,53.01
2019-05-06T18:50:12.542Z,53.35
2019-05-06T18:55:14.753Z,53.51
2019-05-06T19:00:17.378Z,53.42
2019-05-06T19:05:27.123Z,55.05
2019-05-06T19:10:32.737Z,53.95
2019-05-06T19:15:34.570Z,55.16
2019-05-06T19:20:36.046Z,55.00
2019-05-06T19:25:37.625Z,55.70
2019-05-06T19:30:39.203Z,56.78
2019-05-06T19:35:42.856Z,55.57
2019-05-06T19:40:44.651Z,56.77
2019-05-06T19:45:46.226Z,56.91
2019-05-06T19:50:47.891Z,58.06
2019-05-06T19:55:49.524Z,57.62
2019-05-06T20:00:52.846Z,56.09
2019-05-06T20:05:54.760Z,56.01
2019-05-06T20:11:07.977Z,55.38
2019-05-06T20:16:09.454Z,53.41
2019-05-06T20:21:11.362Z,54.58
2019-05-06T20:26:12.880Z,56.48
2019-05-06T20:31:14.358Z,56.15
2019-05-06T20:36:16.043Z,56.00
2019-05-06T20:41:18.681Z,56.22
2019-05-06T20:46:21.997Z,57.15
2019-05-06T20:51:23.542Z,57.93
2019-05-06T20:56:26.247Z,58.38
2019-05-06T21:01:27.819Z,59.43
2019-05-06T21:06:29.391Z,60.08
2019-05-06T21:11:32.572Z,58.40
2019-05-06T21:16:34.470Z,58.51
2019-05-06T21:21:36.003Z,59.85
2019-05-06T21:26:37.482Z,60.45
2019-05-06T21:31:39.075Z,60.62
2019-05-06T21:36:42.226Z,61.46
2019-05-06T21:41:44.007Z,60.50
2019-05-06T21:46:45.498Z,61.59
2019-05-06T21:51:47.099Z,63.62
2019-05-06T21:56:48.695Z,65.28
2019-05-06T22:01:52.042Z,64.43
2019-05-06T22:06:53.906Z,63.58
2019-05-06T22:11:55.685Z,64.16
2019-05-06T22:16:57.364Z,63.66
2019-05-06T22:22:06.377Z,63.52
2019-05-06T22:27:07.863Z,63.51
2019-05-06T22:32:09.442Z,63.61
2019-05-06T22:37:12.544Z,62.93
2019-05-06T22:42:14.462Z,63.85
2019-05-06T22:47:15.928Z,63.70
2019-05-06T22:52:17.402Z,63.60
2019-05-06T22:57:18.875Z,64.02
2019-05-06T23:02:22.666Z,64.14
2019-05-06T23:07:24.172Z,63.92
2019-05-06T23:12:25.646Z,63.64
2019-05-06T23:17:27.171Z,63.30
2019-05-06T23:22:28.695Z,63.88
2019-05-06T23:27:30.179Z,64.09
2019-05-06T23:32:32.610Z,63.60
2019-05-06T23:38:33.762Z,63.97
2019-05-06T23:44:43.064Z,65.29
2019-05-06T23:50:31.945Z,64.73
2019-05-06T23:56:30.167Z,63.87
